Lisbon, Portugal
Current Conditions -  °F | °C
As of 10:30 PM on Wednesday 22 Oct 2014 (Local Time) from LPPT Reporting Station
Clear Clear  
Wind Chill: 75°   Ceiling: Unl
Heat Index: 75°   Visibility: 6mi
Dew Point: 52°   Wind: 7mph
Humidity: 44%   Direction: 360°N
Pressure: 30.21"   Gusts: NA
Location:  38.72°N, 9.14°W
Report Text: LPPT 222130Z 36006KT CAVOK 24/11 Q1023
Loading
Personal Weather Stations






























Interactive Weather Map
Tropical Storm Tracking
New forecast layout! Learn more

10-Day Weather Forecast

Advertisements
Track Severe Weather on mobile